Weather reports worldwide

Advertisment
Newcastle, United Kingdom (3245): temperature & dewpoint: 17.02.2019 14:00:00 - 23.02.2019 14:00:00 (GMT)Newcastle, United Kingdom (3245): wind speed: 17.02.2019 14:00:00 - 23.02.2019 14:00:00 (GMT)Newcastle, United Kingdom (3245): wind direction: 17.02.2019 14:00:00 - 23.02.2019 14:00:00 (GMT)Newcastle, United Kingdom (3245): visibility: 17.02.2019 14:00:00 - 23.02.2019 14:00:00 (GMT)
Date & Time tt [°C] td [°C] ff [km/h] ff [kn] dd vv [km]
23.02.2019 14:00:00 15,0 6,0 9 5 S 9
23.02.2019 13:00:00 14,0 6,0 9 5 SSE 9
23.02.2019 12:00:00 11,0 6,0 18 10 E 7
23.02.2019 11:00:00 10,0 5,0 13 7 SE 6
23.02.2019 10:00:00 7,0 5,0 15 8 ESE 5
23.02.2019 09:00:00 8,0 4,0 13 7 SSE 9
23.02.2019 08:00:00 6,0 5,0 9 5 SE 4,5
23.02.2019 07:00:00 7,0 5,0 13 7 SSE 6
23.02.2019 06:00:00 7,0 5,0 18 10 S 8
23.02.2019 05:00:00 8,0 5,0 8 4 S 10
23.02.2019 04:00:00 7,0 5,0 5 3 - 10
23.02.2019 03:00:00 9,0 5,0 5 3 - 10
23.02.2019 02:00:00 8,0 6,0 4 2 - 10
23.02.2019 01:00:00 8,0 6,0 11 6 SE 10
23.02.2019 00:00:00 10,0 7,0 9 5 S 10
22.02.2019 23:00:00 10,0 7,0 16 9 S 10
22.02.2019 22:00:00 11,0 7,0 21 11 S 10
22.02.2019 21:00:00 12,0 7,0 15 8 SSE 10
22.02.2019 20:00:00 12,0 7,0 16 9 SSE 10
22.02.2019 19:00:00 12,0 7,0 5 3 - 10
22.02.2019 18:00:00 13,0 7,0 13 7 SSE 10
22.02.2019 17:00:00 13,0 7,0 9 5 SSE 10
22.02.2019 16:00:00 14,0 7,0 9 5 S 10
22.02.2019 15:00:00 15,0 7,0 11 6 SSE 10
22.02.2019 14:00:00 15,0 7,0 11 6 SE 10
22.02.2019 13:00:00 15,0 7,0 11 6 SSE 10
22.02.2019 12:00:00 14,0 7,0 16 9 SSE 10
22.02.2019 11:00:00 12,0 7,0 13 7 S 10
22.02.2019 10:00:00 11,0 7,0 16 9 S 10
22.02.2019 09:00:00 9,0 6,0 15 8 S 10
22.02.2019 08:00:00 8,0 6,0 9 5 S 10
22.02.2019 07:00:00 5,0 5,0 8 4 SSE 10
22.02.2019 06:00:00 5,0 5,0 8 4 ESE 10
22.02.2019 05:00:00 3,0 3,0 4 2 - 10
22.02.2019 04:00:00 3,0 2,0 4 2 - 10
22.02.2019 03:00:00 2,0 2,0 5 3 WSW 10
22.02.2019 02:00:00 3,0 3,0 4 2 - 10
22.02.2019 01:00:00 4,0 4,0 4 2 S 10
22.02.2019 00:00:00 4,0 3,0 2 1 SSW 10
21.02.2019 23:00:00 6,0 5,0 5 3 S 10
21.02.2019 22:00:00 7,0 6,0 11 6 SW 10
21.02.2019 21:00:00 7,0 6,0 9 5 SW 10
21.02.2019 20:00:00 8,0 6,0 11 6 SW 10
21.02.2019 19:00:00 9,0 7,0 9 5 SW 10
21.02.2019 18:00:00 10,0 7,0 15 8 W 10
21.02.2019 17:00:00 12,0 8,0 13 7 WSW 10
21.02.2019 16:00:00 13,0 8,0 26 14 W 10
21.02.2019 15:00:00 14,0 8,0 34 18 W 10
21.02.2019 14:00:00 14,0 8,0 35 19 W 10
21.02.2019 13:00:00 14,0 8,0 31 17 W 10
21.02.2019 12:00:00 14,0 8,0 34 18 WSW 10
21.02.2019 11:00:00 14,0 10,0 18 10 W 10
21.02.2019 10:00:00 12,0 9,0 18 10 W 10
21.02.2019 09:00:00 12,0 9,0 9 5 WSW 10
21.02.2019 08:00:00 11,0 8,0 15 8 WSW 10
21.02.2019 07:00:00 10,0 8,0 18 10 WSW 10
21.02.2019 06:00:00 10,0 8,0 11 6 WSW 10
21.02.2019 05:00:00 10,0 7,0 9 5 SW 10
21.02.2019 04:00:00 11,0 7,0 8 4 SW 10
21.02.2019 03:00:00 10,0 7,0 9 5 WSW 10
21.02.2019 02:00:00 10,0 7,0 8 4 SW 10
21.02.2019 01:00:00 11,0 7,0 15 8 SW 10
21.02.2019 00:00:00 11,0 7,0 21 11 SSW 10
20.02.2019 23:00:00 11,0 7,0 21 11 SSW 10
20.02.2019 22:00:00 11,0 7,0 28 15 SW 10
20.02.2019 21:00:00 11,0 7,0 21 11 SSW 10
20.02.2019 20:00:00 10,0 7,0 21 11 SW 10
20.02.2019 19:00:00 11,0 7,0 24 13 SW 10
20.02.2019 18:00:00 10,0 7,0 29 16 SW 10
20.02.2019 17:00:00 11,0 7,0 31 17 SW 10
20.02.2019 16:00:00 10,0 7,0 18 10 SW 10
20.02.2019 15:00:00 10,0 7,0 26 14 SW 8
20.02.2019 14:00:00 11,0 7,0 22 12 SW 10
20.02.2019 13:00:00 11,0 8,0 24 13 SW 10
20.02.2019 12:00:00 11,0 7,0 39 21 WSW 10
20.02.2019 11:00:00 11,0 7,0 21 11 SW 10
20.02.2019 10:00:00 11,0 6,0 18 10 WSW 10
20.02.2019 09:00:00 10,0 6,0 24 13 SW 10
20.02.2019 08:00:00 10,0 6,0 16 9 SW 10
20.02.2019 07:00:00 10,0 6,0 22 12 WSW 10
20.02.2019 06:00:00 9,0 6,0 15 8 SW 10
20.02.2019 05:00:00 9,0 5,0 24 13 SW 10
20.02.2019 04:00:00 9,0 5,0 18 10 SW 10
20.02.2019 03:00:00 9,0 5,0 24 13 SW 10
20.02.2019 02:00:00 8,0 5,0 13 7 S 10
20.02.2019 01:00:00 7,0 5,0 15 8 S 10
20.02.2019 00:00:00 7,0 5,0 15 8 S 10
19.02.2019 23:00:00 7,0 5,0 11 6 S 9
19.02.2019 22:00:00 7,0 4,0 13 7 S 10
19.02.2019 21:00:00 7,0 4,0 15 8 S 10
19.02.2019 20:00:00 7,0 4,0 11 6 SSW 10
19.02.2019 19:00:00 8,0 3,0 15 8 SW 10
19.02.2019 18:00:00 7,0 2,0 9 5 SSW 10
19.02.2019 17:00:00 8,0 2,0 9 5 SW 10
19.02.2019 16:00:00 8,0 2,0 13 7 WSW 10
19.02.2019 15:00:00 8,0 2,0 21 11 SW 10
19.02.2019 14:00:00 8,0 1,0 24 13 WSW 10
19.02.2019 13:00:00 9,0 3,0 29 16 W 10
19.02.2019 12:00:00 9,0 3,0 22 12 W 10
19.02.2019 11:00:00 9,0 4,0 28 15 W 10
19.02.2019 10:00:00 8,0 4,0 31 17 W 10
19.02.2019 09:00:00 7,0 5,0 26 14 W 10
19.02.2019 08:00:00 6,0 4,0 21 11 WSW 10
19.02.2019 07:00:00 6,0 4,0 15 8 WSW 10
19.02.2019 06:00:00 6,0 4,0 28 15 W 10
19.02.2019 05:00:00 6,0 4,0 24 13 W 10
19.02.2019 04:00:00 6,0 4,0 28 15 W 10
19.02.2019 03:00:00 - - - - - -
19.02.2019 02:00:00 6,0 4,0 29 16 W 10
19.02.2019 01:00:00 7,0 5,0 28 15 W 10
19.02.2019 00:00:00 - - - - - -
18.02.2019 23:00:00 7,0 5,0 22 12 W 10
18.02.2019 22:00:00 8,0 4,0 26 14 WSW 10
18.02.2019 21:00:00 7,0 4,0 16 9 WSW 10
18.02.2019 20:00:00 7,0 4,0 24 13 SW 10
18.02.2019 19:00:00 8,0 3,0 22 12 SW 10
18.02.2019 18:00:00 8,0 3,0 21 11 SW 10
18.02.2019 17:00:00 8,0 3,0 26 14 SW 10
18.02.2019 16:00:00 9,0 2,0 29 16 SW 10
18.02.2019 15:00:00 9,0 2,0 34 18 SW 10
18.02.2019 14:00:00 10,0 2,0 37 20 SW 10
18.02.2019 13:00:00 9,0 1,0 31 17 SW 10
18.02.2019 12:00:00 10,0 2,0 29 16 SSW 10
18.02.2019 11:00:00 9,0 3,0 28 15 SW 10
18.02.2019 10:00:00 9,0 4,0 28 15 SSW 10
18.02.2019 09:00:00 8,0 3,0 31 17 SSW 10
18.02.2019 08:00:00 8,0 3,0 24 13 S 10
18.02.2019 07:00:00 7,0 3,0 24 13 S 10
18.02.2019 06:00:00 8,0 3,0 22 12 S 10
18.02.2019 05:00:00 7,0 3,0 22 12 S 10
18.02.2019 04:00:00 7,0 3,0 16 9 S 10
18.02.2019 03:00:00 7,0 3,0 15 8 S 10
18.02.2019 02:00:00 7,0 3,0 15 8 S 10
18.02.2019 01:00:00 8,0 3,0 22 12 S 10
18.02.2019 00:00:00 8,0 2,0 24 13 S 10
17.02.2019 23:00:00 7,0 2,0 18 10 S 10
17.02.2019 22:00:00 7,0 2,0 15 8 S 10
17.02.2019 21:00:00 8,0 1,0 15 8 S 10
17.02.2019 20:00:00 8,0 2,0 21 11 SSW 10
17.02.2019 19:00:00 - - - - - -
17.02.2019 18:00:00 9,0 4,0 24 13 SSW 10
17.02.2019 17:00:00 11,0 4,0 26 14 SSW 10
17.02.2019 16:00:00 12,0 4,0 29 16 SW 10
17.02.2019 15:00:00 12,0 5,0 37 20 SW 10
17.02.2019 14:00:00 13,0 6,0 24 13 SSW 10

tt = temperature
td = dewpoint
ff = wind speed
dd = wind direction
vv = visibility

Next stations